createdAt,value
2022-07-31T05:57:56.150Z,270
2022-07-31T06:02:55.483Z,270
2022-07-31T06:07:56.036Z,270
2022-07-31T06:12:56.287Z,270
2022-07-31T06:17:56.335Z,202
2022-07-31T06:22:55.652Z,202
2022-07-31T06:28:01.195Z,292
2022-07-31T06:32:55.745Z,292
2022-07-31T06:37:56.225Z,270
2022-07-31T06:42:56.306Z,270
2022-07-31T06:47:55.604Z,202
2022-07-31T06:52:55.689Z,202
2022-07-31T06:57:55.917Z,202
2022-07-31T07:02:55.994Z,202
2022-07-31T07:07:56.370Z,225
2022-07-31T07:12:55.711Z,225
2022-07-31T07:17:56.139Z,270
2022-07-31T07:22:56.255Z,270
2022-07-31T07:27:56.399Z,270
2022-07-31T07:32:55.877Z,270
2022-07-31T07:37:56.540Z,225
2022-07-31T07:43:03.171Z,225
2022-07-31T07:48:07.683Z,202
2022-07-31T07:52:55.799Z,202
2022-07-31T07:57:56.593Z,248
2022-07-31T08:03:52.244Z,248
2022-07-31T08:07:55.898Z,202
2022-07-31T08:12:56.182Z,202
2022-07-31T08:17:56.406Z,225
2022-07-31T08:22:55.722Z,225
2022-07-31T08:27:56.030Z,270
2022-07-31T08:32:56.103Z,270
2022-07-31T08:38:04.984Z,270
2022-07-31T08:43:01.699Z,270
2022-07-31T08:47:55.734Z,270
2022-07-31T08:52:55.795Z,270
2022-07-31T08:57:55.915Z,202
2022-07-31T09:02:55.738Z,202
2022-07-31T09:07:56.053Z,158
2022-07-31T09:12:55.747Z,158
2022-07-31T09:17:56.076Z,202
2022-07-31T09:22:56.386Z,202
2022-07-31T09:27:55.776Z,180
2022-07-31T09:32:56.240Z,180
2022-07-31T09:37:56.587Z,202
2022-07-31T09:42:56.420Z,202
2022-07-31T09:47:55.787Z,270
2022-07-31T09:52:56.027Z,270
2022-07-31T09:57:56.139Z,202
2022-07-31T10:02:56.209Z,202
2022-07-31T10:07:55.929Z,202
2022-07-31T10:12:56.244Z,202
2022-07-31T10:17:56.463Z,158
2022-07-31T10:22:55.674Z,158
2022-07-31T10:27:55.743Z,270
2022-07-31T10:32:56.140Z,270
2022-07-31T10:37:56.604Z,202
2022-07-31T10:42:55.917Z,202
2022-07-31T10:47:56.317Z,248
2022-07-31T10:53:00.833Z,248
2022-07-31T10:57:57.798Z,180
2022-07-31T11:02:55.873Z,180
2022-07-31T11:07:56.345Z,158
2022-07-31T11:12:56.565Z,158
2022-07-31T11:18:28.887Z,180
2022-07-31T11:22:55.897Z,180
2022-07-31T11:27:56.219Z,270
2022-07-31T11:32:56.357Z,270
2022-07-31T11:37:58.507Z,248
2022-07-31T11:43:26.315Z,248
2022-07-31T11:48:14.171Z,202
2022-07-31T11:52:56.134Z,202
2022-07-31T11:57:56.266Z,270
2022-07-31T12:02:56.712Z,270
2022-07-31T12:07:55.950Z,225
2022-07-31T12:12:56.152Z,225
2022-07-31T12:17:56.277Z,158
2022-07-31T12:22:56.429Z,158
2022-07-31T12:27:55.682Z,180
2022-07-31T12:32:55.886Z,180
2022-07-31T12:37:56.466Z,270
2022-07-31T12:42:55.625Z,270
2022-07-31T12:47:55.949Z,270
2022-07-31T12:52:56.006Z,270
2022-07-31T12:57:56.125Z,270
2022-07-31T13:02:56.196Z,270
2022-07-31T13:07:56.356Z,248
2022-07-31T13:12:56.455Z,248
2022-07-31T13:17:56.483Z,270
2022-07-31T13:22:56.598Z,270
2022-07-31T13:27:55.683Z,180
2022-07-31T13:32:55.979Z,180
2022-07-31T13:37:56.214Z,180
2022-07-31T13:42:56.577Z,180
2022-07-31T13:48:03.341Z,202
2022-07-31T13:52:56.029Z,202
2022-07-31T13:58:01.312Z,180
2022-07-31T14:02:57.341Z,180
2022-07-31T14:08:49.471Z,202
2022-07-31T14:12:55.895Z,202
2022-07-31T14:17:56.123Z,202
2022-07-31T14:22:56.382Z,202
2022-07-31T14:27:56.502Z,180
2022-07-31T14:32:55.763Z,180
2022-07-31T14:37:55.963Z,202
2022-07-31T14:42:56.168Z,202
2022-07-31T14:47:56.589Z,180
2022-07-31T14:52:56.151Z,180
2022-07-31T14:57:56.714Z,225
2022-07-31T15:02:56.578Z,225
2022-07-31T15:07:56.630Z,248
2022-07-31T15:12:55.809Z,248
2022-07-31T15:17:56.536Z,270
2022-07-31T15:22:56.086Z,270
2022-07-31T15:27:56.539Z,270
2022-07-31T15:32:56.297Z,270
2022-07-31T15:37:56.501Z,270
2022-07-31T15:42:56.715Z,270
2022-07-31T15:47:55.942Z,270
2022-07-31T15:52:56.129Z,270
2022-07-31T15:57:56.399Z,292
2022-07-31T16:03:00.008Z,292
2022-07-31T16:08:35.436Z,292
2022-07-31T16:12:56.291Z,292
2022-07-31T16:17:56.519Z,315
2022-07-31T16:22:56.045Z,315
2022-07-31T16:27:56.371Z,315
2022-07-31T16:32:56.535Z,315
2022-07-31T16:37:55.913Z,292
2022-07-31T16:42:56.077Z,292
2022-07-31T16:47:56.432Z,315
2022-07-31T16:52:56.762Z,315
2022-07-31T16:57:55.967Z,315
2022-07-31T17:02:56.021Z,315
2022-07-31T17:07:56.449Z,315
2022-07-31T17:12:56.651Z,315
2022-07-31T17:17:56.730Z,315
2022-07-31T17:22:55.826Z,315
2022-07-31T17:27:55.870Z,315
2022-07-31T17:32:56.052Z,315
2022-07-31T17:37:56.198Z,315
2022-07-31T17:42:56.266Z,315
2022-07-31T17:48:04.093Z,315
